Susan Ann — WCY5700 — position and weather

sailwx.info

Track history (hours):
 
Tides and Currents Weather Stations Pressure Air Temp Water Temp Dewpoint Dewpoint Depression Visibility Wind Speed Wind Dir Waves Ship Positions

Susan Ann

Owner: CROSS SOUND FERRY SERVICES INC, NEW LONDON, CT. More information available from US FCC via Universal Licensing System and Coast Guard Vessel Documentation Center.

Last reported at 2016-Jun-22 23:34 UTC. Time now 2016-Jun-24 20:22 UTC.
Position N 41°16' W 072°08'.

Length 72 m; draft 4 m.

Type: Passenger vessel. MMSI: 367354350.

Date/timePositionNaut miles runAvg speedWind from/ knotsBaromVisibWave heightAir tempDewpointWater temp
2016-Jun-22 23:34N 41°16' W 072°08'0 0.0
2016-Jun-21 21:34N 41°16' W 072°08'3 0.1
2016-Jun-20 01:33N 41°13' W 072°10'5 5.1
2016-Jun-20 00:30N 41°09' W 072°14'5 1.9
2016-Jun-19 21:33N 41°13' W 072°10'5 5.1
2016-Jun-19 20:29N 41°09' W 072°14'8 8.4
2016-Jun-19 19:33N 41°15' W 072°08'2 1.2
2016-Jun-19 17:33N 41°13' W 072°10'6 5.1
2016-Jun-19 16:28N 41°09' W 072°14'12 0.7
2016-Jun-19 00:06N 41°19' W 072°05'712.5
2016-Jun-18 23:33N 41°13' W 072°10'5 4.2
2016-Jun-18 22:19N 41°09' W 072°14'912.0
2016-Jun-18 21:33N 41°17' W 072°07'5 2.3
2016-Jun-18 19:31N 41°13' W 072°11'4 4.6
2016-Jun-18 18:32N 41°09' W 072°14'9 8.7
2016-Jun-18 17:31N 41°16' W 072°07'0 0.1
2016-Jun-18 13:33N 41°16' W 072°07'5 5.1
2016-Jun-18 12:29N 41°21' W 072°06'9 9.6
2016-Jun-18 11:30N 41°13' W 072°11'4 4.5
2016-Jun-18 10:31N 41°09' W 072°14'5 0.5
2016-Jun-18 01:31N 41°13' W 072°11'1 0.5
2016-Jun-17 23:33N 41°14' W 072°10'6 5.6
2016-Jun-17 22:34N 41°09' W 072°14'9 8.9
2016-Jun-17 21:33N 41°16' W 072°07'5 4.3
2016-Jun-17 20:21N 41°21' W 072°05'1012.2
2016-Jun-17 19:34N 41°13' W 072°11'5 0.8
2016-Jun-17 13:31N 41°16' W 072°07'9 0.7
2016-Jun-17 00:18N 41°09' W 072°14'911.5
2016-Jun-16 23:33N 41°16' W 072°07'3 1.7
2016-Jun-16 22:04N 41°18' W 072°05'612.7
2016-Jun-16 21:33N 41°13' W 072°11'5 0.9
2016-Jun-16 16:25N 41°09' W 072°14'6 0.4
2016-Jun-15 23:33N 41°14' W 072°09'2 1.0
2016-Jun-15 21:32N 41°16' W 072°08'8 0.4
2016-Jun-15 00:22N 41°09' W 072°14'910.6
2016-Jun-14 23:33N 41°16' W 072°07'3 0.1
2016-Jun-13 23:33N 41°14' W 072°09'6 5.9
2016-Jun-13 22:33N 41°09' W 072°14'0 0.0
2016-Jun-13 02:06N 41°09' W 072°14'5 9.4
2016-Jun-13 01:34N 41°13' W 072°10'  
Track history (hours):
 
Tides and Currents Weather Stations Pressure Air Temp Water Temp Dewpoint Dewpoint Depression Visibility Wind Speed Wind Dir Waves Ship Positions

Susan Ann

Owner: CROSS SOUND FERRY SERVICES INC, NEW LONDON, CT. More information available from US FCC via Universal Licensing System and Coast Guard Vessel Documentation Center.

Last reported at 2016-Jun-22 23:34 UTC. Time now 2016-Jun-24 20:22 UTC.
Position N 41°16' W 072°08'.

Length 72 m; draft 4 m.

Type: Passenger vessel. MMSI: 367354350.

Date/timePositionNaut miles runAvg speedWind from/ knotsBaromVisibWave heightAir tempDewpointWater temp
2016-Jun-22 23:34N 41°16' W 072°08'0 0.0
2016-Jun-21 21:34N 41°16' W 072°08'3 0.1
2016-Jun-20 01:33N 41°13' W 072°10'5 5.1
2016-Jun-20 00:30N 41°09' W 072°14'5 1.9
2016-Jun-19 21:33N 41°13' W 072°10'5 5.1
2016-Jun-19 20:29N 41°09' W 072°14'8 8.4
2016-Jun-19 19:33N 41°15' W 072°08'2 1.2
2016-Jun-19 17:33N 41°13' W 072°10'6 5.1
2016-Jun-19 16:28N 41°09' W 072°14'12 0.7
2016-Jun-19 00:06N 41°19' W 072°05'712.5
2016-Jun-18 23:33N 41°13' W 072°10'5 4.2
2016-Jun-18 22:19N 41°09' W 072°14'912.0
2016-Jun-18 21:33N 41°17' W 072°07'5 2.3
2016-Jun-18 19:31N 41°13' W 072°11'4 4.6
2016-Jun-18 18:32N 41°09' W 072°14'9 8.7
2016-Jun-18 17:31N 41°16' W 072°07'0 0.1
2016-Jun-18 13:33N 41°16' W 072°07'5 5.1
2016-Jun-18 12:29N 41°21' W 072°06'9 9.6
2016-Jun-18 11:30N 41°13' W 072°11'4 4.5
2016-Jun-18 10:31N 41°09' W 072°14'5 0.5
2016-Jun-18 01:31N 41°13' W 072°11'1 0.5
2016-Jun-17 23:33N 41°14' W 072°10'6 5.6
2016-Jun-17 22:34N 41°09' W 072°14'9 8.9
2016-Jun-17 21:33N 41°16' W 072°07'5 4.3
2016-Jun-17 20:21N 41°21' W 072°05'1012.2
2016-Jun-17 19:34N 41°13' W 072°11'5 0.8
2016-Jun-17 13:31N 41°16' W 072°07'9 0.7
2016-Jun-17 00:18N 41°09' W 072°14'911.5
2016-Jun-16 23:33N 41°16' W 072°07'3 1.7
2016-Jun-16 22:04N 41°18' W 072°05'612.7
2016-Jun-16 21:33N 41°13' W 072°11'5 0.9
2016-Jun-16 16:25N 41°09' W 072°14'6 0.4
2016-Jun-15 23:33N 41°14' W 072°09'2 1.0
2016-Jun-15 21:32N 41°16' W 072°08'8 0.4
2016-Jun-15 00:22N 41°09' W 072°14'910.6
2016-Jun-14 23:33N 41°16' W 072°07'3 0.1
2016-Jun-13 23:33N 41°14' W 072°09'6 5.9
2016-Jun-13 22:33N 41°09' W 072°14'0 0.0
2016-Jun-13 02:06N 41°09' W 072°14'5 9.4
2016-Jun-13 01:34N 41°13' W 072°10'  

Dump ship's entire track history